x

Folly Island, Sc (fbis1) Weather Station

10:00pm - Sat 19th Jan 2019 All times are EST. -5 hours from GMT.

  • Wind
    21mph, 24mph gusts
  • Air Temp 63°f
  • Sea Pressure 1006.6mb
  • Folly Island, Sc
  • Folly Island, Sc

More Historic Weather Station data

Upgrade to MSW Pro to gain access to the past 30 days of data for over 8000 Wavebouys and Weather Stations around the globe.

Join

Comparision Forecast

View Surf forecast
   
Sat 01/19 10:00pm 21 24 mph 1006.6mb 63f
9:00pm 16 18 mph 1007.7mb 62f
8:00pm 17 18 mph 1008.5mb 62f
7:00pm 17 18 mph 1009.2mb 61f
6:00pm 15 16 mph 1010.6mb 60f
5:00pm 9 10 mph 1011.4mb 60f
4:00pm 7 7 mph 1012.9mb 59f
3:00pm 8 9 mph 1013.6mb 61f
2:00pm 6 7 mph 1014.4mb 63f
1:00pm 6 6 mph 1015.8mb 61f
12:00pm 3 5 mph 1017mb 60f
11:00am 7 8 mph 1018mb 58f
10:00am 6 7 mph 1018mb 58f
9:00am 5 6 mph 1018.1mb 57f
8:00am 6 7 mph 1017.7mb 56f
7:00am 9 10 mph 1018.2mb 56f
6:00am 9 10 mph 1018mb 56f
5:00am 6 7 mph 1018.3mb 56f
4:00am 3 5 mph 1018.6mb 56f
3:00am 2 3 mph 1019.2mb 56f
2:00am 5 5 mph 1019.7mb 56f
1:00am 5 5 mph 1020.3mb 56f
12:00am  -  1 mph 1020.9mb 56f
Fri 01/18 11:00pm 7 8 mph 1021mb 56f
10:00pm 7 8 mph 1020.8mb 56f
9:00pm 5 6 mph 1020.6mb 56f
8:00pm 3 5 mph 1020.4mb 57f
7:00pm 3 3 mph 1020mb 57f
6:00pm 7 9 mph 1020mb 56f
5:00pm 7 8 mph 1019.4mb 57f
4:00pm 8 10 mph 1019.3mb 57f
3:00pm 9 10 mph 1019.2mb 58f
2:00pm 5 6 mph 1019.2mb 58f
1:00pm 7 9 mph 1020.2mb 62f
12:00pm 7 10 mph 1021.5mb 62f
11:00am 5 7 mph 1022mb 60f
10:00am 5 6 mph 1022.1mb 57f
9:00am 6 8 mph 1021.7mb 56f
8:00am 2 3 mph 1021.4mb 52f
7:00am 2 3 mph 1021.2mb 52f
6:00am 2 3 mph 1021mb 52f
5:00am 3 5 mph 1020.9mb 53f
4:00am 5 5 mph 1020.9mb 52f
3:00am 6 7 mph 1021.5mb 52f
2:00am 3 3 mph 1021.6mb 50f
1:00am 5 6 mph 1021.9mb 52f
12:00am 2 2 mph 1022.5mb 52f
Thu 01/17 11:00pm  -  1 mph 1022.6mb 51f
10:00pm 3 5 mph 1023.3mb 51f
9:00pm 3 5 mph 1023.8mb 52f
8:00pm 2 3 mph 1022.8mb 55f
7:00pm 6 6 mph 1022.5mb 54f
6:00pm 6 7 mph 1022.7mb 54f
5:00pm  -  1 mph 1022.7mb 55f
4:00pm 3 5 mph 1022.8mb 55f
3:00pm 6 7 mph 1023.1mb 54f
2:00pm 6 7 mph 1023.4mb 54f
1:00pm 8 8 mph 1024.2mb 54f
12:00pm 7 8 mph 1025.4mb 54f
11:00am 2 3 mph 1026.4mb 53f
10:00am 2 2 mph 1026.8mb 51f
9:00am 3 5 mph 1025.4mb 49f
8:00am 3 3 mph 1025mb 45f
7:00am 5 5 mph 1025.1mb 44f
6:00am 3 5 mph 1025.1mb 45f
5:00am 3 5 mph 1024.9mb 45f
4:00am 3 5 mph 1024.6mb 46f
3:00am 3 3 mph 1024.7mb 47f
2:00am 5 6 mph 1025mb 46f
1:00am 3 5 mph 1024.7mb 46f
12:00am 5 5 mph 1025.2mb 46f
Wed 01/16 11:00pm 3 5 mph 1025.4mb 46f
10:00pm 6 6 mph 1025.2mb 48f
9:00pm 5 6 mph 1024.8mb 48f
8:00pm 6 8 mph 1024.4mb 50f
7:00pm 6 7 mph 1024.2mb 50f
6:00pm 8 11 mph 1023.5mb 51f
5:00pm 13 15 mph 1023.2mb 53f
4:00pm 10 11 mph 1023.2mb 53f
3:00pm 14 15 mph 1023.4mb 53f
2:00pm 11 13 mph 1023.8mb 52f
1:00pm 10 11 mph 1024.2mb 52f
12:00pm 6 8 mph 1025.1mb 53f
11:00am 6 8 mph 1025.9mb 51f
10:00am 5 6 mph 1025.9mb 51f
9:00am 5 7 mph 1025.3mb 48f
8:00am 2 3 mph 1024.9mb 47f
7:00am 1 2 mph 1024.6mb 47f
6:00am 2 3 mph 1023.9mb 48f
5:00am 3 5 mph 1023.6mb 49f